Terminal Aerodrome Forecast
Issued by NWS North Platte, NE

Home | Current Version | Previous Version | Text Only | Print | Product List | Glossary Off
Versions: 1 2 3 4 5 6 7 8 9 10 11 12 13 14 15 16

000
FTUS43 KLBF 132300
TAFVTN
TAF
KVTN 132322Z 1400/1424 36020G30KT P6SM OVC090
     FM140300 36015KT P6SM BKN100
     FM140800 33011KT P6SM SCT250
     FM141500 31011G22KT P6SM BKN050=

USA.gov is the U.S. government's official web portal to all federal, state and local government web resources and services.